createdAt,value
2024-02-19T00:01:32.353Z,87.29
2024-02-19T00:04:00.012Z,86.14
2024-02-19T00:06:27.788Z,86.72
2024-02-19T00:08:55.598Z,85.08
2024-02-19T00:11:23.299Z,85.69
2024-02-19T00:13:51.238Z,85.41
2024-02-19T00:16:18.821Z,86.21
2024-02-19T00:18:47.026Z,86.09
2024-02-19T00:21:17.833Z,86.21
2024-02-19T00:23:45.432Z,86.67
2024-02-19T00:26:15.605Z,87.29
2024-02-19T00:28:43.697Z,87.68
2024-02-19T00:31:14.776Z,87.90
2024-02-19T00:33:43.042Z,87.50
2024-02-19T00:36:10.842Z,87.58
2024-02-19T00:38:38.323Z,87.33
2024-02-19T00:41:05.893Z,87.40
2024-02-19T00:43:33.342Z,87.38
2024-02-19T00:46:01.147Z,86.71
2024-02-19T00:48:29.020Z,86.95
2024-02-19T00:50:56.501Z,86.10
2024-02-19T00:53:24.050Z,85.53
2024-02-19T00:55:53.907Z,85.83
2024-02-19T00:58:21.810Z,86.25
2024-02-19T01:00:49.417Z,86.49
2024-02-19T01:03:18.381Z,85.78
2024-02-19T01:05:46.005Z,86.07
2024-02-19T01:08:13.556Z,86.65
2024-02-19T01:10:41.176Z,86.10
2024-02-19T01:13:09.025Z,85.76
2024-02-19T01:15:37.078Z,85.98
2024-02-19T01:18:05.813Z,85.97
2024-02-19T01:20:33.443Z,85.29
2024-02-19T01:23:00.953Z,85.78
2024-02-19T01:25:28.539Z,86.21
2024-02-19T01:27:56.302Z,86.26
2024-02-19T01:30:24.164Z,84.21
2024-02-19T01:32:51.860Z,83.89
2024-02-19T01:35:19.554Z,83.66
2024-02-19T01:37:47.415Z,84.81
2024-02-19T01:40:15.319Z,86.15
2024-02-19T01:42:43.027Z,85.09
2024-02-19T01:45:38.488Z,85.59
2024-02-19T01:48:07.326Z,85.01
2024-02-19T01:50:36.610Z,86.42
2024-02-19T01:53:08.868Z,86.09
2024-02-19T01:55:38.900Z,86.35
2024-02-19T01:58:08.416Z,85.97
2024-02-19T02:00:44.732Z,86.00
2024-02-19T02:03:16.025Z,86.17
2024-02-19T02:05:43.809Z,86.36
2024-02-19T02:08:11.423Z,86.46
2024-02-19T02:10:38.991Z,86.09
2024-02-19T02:13:06.823Z,87.20
2024-02-19T02:15:34.662Z,87.29
2024-02-19T02:18:02.531Z,87.12
2024-02-19T02:20:32.609Z,86.90
2024-02-19T02:23:00.219Z,86.99
2024-02-19T02:25:27.839Z,86.61
2024-02-19T02:27:55.465Z,86.36
2024-02-19T02:30:23.202Z,87.13
2024-02-19T02:32:54.671Z,86.63
2024-02-19T02:35:24.980Z,86.65
2024-02-19T02:37:52.575Z,85.92
2024-02-19T02:40:20.234Z,85.29
2024-02-19T02:42:47.933Z,85.22
2024-02-19T02:45:15.340Z,84.93
2024-02-19T02:47:42.851Z,85.41
2024-02-19T02:50:10.687Z,84.06
2024-02-19T02:52:38.438Z,83.99
2024-02-19T02:55:06.432Z,84.66
2024-02-19T02:57:33.976Z,84.36
2024-02-19T03:00:01.656Z,84.83
2024-02-19T03:02:34.268Z,83.81
2024-02-19T03:05:02.218Z,82.77
2024-02-19T03:07:30.868Z,83.27
2024-02-19T03:09:58.668Z,83.37
2024-02-19T03:12:26.114Z,82.33
2024-02-19T03:14:54.051Z,83.65
2024-02-19T03:17:22.081Z,84.25
2024-02-19T03:19:49.893Z,84.67
2024-02-19T03:22:17.678Z,84.83
2024-02-19T03:24:45.238Z,84.78
2024-02-19T03:27:14.090Z,84.26
2024-02-19T03:29:41.973Z,84.82
2024-02-19T03:32:09.601Z,85.28
2024-02-19T03:34:37.238Z,84.94
2024-02-19T03:37:04.764Z,83.84
2024-02-19T03:39:32.471Z,82.97
2024-02-19T03:42:01.737Z,82.65
2024-02-19T03:44:29.468Z,84.06
2024-02-19T03:47:00.145Z,84.07
2024-02-19T03:49:29.197Z,84.01
2024-02-19T03:51:57.013Z,83.76
2024-02-19T03:54:24.535Z,83.00
2024-02-19T03:56:52.614Z,83.92
2024-02-19T03:59:20.162Z,83.58
2024-02-19T04:01:47.821Z,84.47
2024-02-19T04:04:17.923Z,85.17
2024-02-19T04:06:45.881Z,84.88
2024-02-19T04:09:13.533Z,84.71
2024-02-19T04:11:41.094Z,84.35
2024-02-19T04:14:08.868Z,84.49
2024-02-19T04:16:36.280Z,82.99
2024-02-19T04:19:04.128Z,82.36
2024-02-19T04:21:31.789Z,83.20
2024-02-19T04:23:59.618Z,83.47
2024-02-19T04:26:27.130Z,83.92
2024-02-19T04:28:55.215Z,84.01
2024-02-19T04:31:22.664Z,84.50
2024-02-19T04:33:50.602Z,83.15
2024-02-19T04:36:18.244Z,82.72
2024-02-19T04:38:45.913Z,82.80
2024-02-19T04:41:13.296Z,82.75
2024-02-19T04:43:40.947Z,83.44
2024-02-19T04:46:08.700Z,83.01
2024-02-19T04:48:37.483Z,83.30
2024-02-19T04:51:06.618Z,84.86
2024-02-19T04:53:34.446Z,84.06
2024-02-19T04:56:02.622Z,84.48
2024-02-19T04:58:30.402Z,84.66
2024-02-19T05:00:57.933Z,84.56
2024-02-19T05:03:25.405Z,85.54
2024-02-19T05:05:52.881Z,85.89
2024-02-19T05:08:20.482Z,86.20
2024-02-19T05:10:48.002Z,86.33
2024-02-19T05:13:15.596Z,85.51
2024-02-19T05:15:43.560Z,83.28
2024-02-19T05:18:11.340Z,84.09
2024-02-19T05:20:39.023Z,84.22
2024-02-19T05:23:06.494Z,84.18
2024-02-19T05:25:33.892Z,83.57
2024-02-19T05:28:02.311Z,82.74
2024-02-19T05:30:30.017Z,82.33
2024-02-19T05:32:57.608Z,83.03
2024-02-19T05:35:26.463Z,83.37
2024-02-19T05:37:54.215Z,81.36
2024-02-19T05:40:21.815Z,81.63
2024-02-19T05:42:49.563Z,81.72
2024-02-19T05:45:17.102Z,82.30
2024-02-19T05:47:44.909Z,82.76
2024-02-19T05:50:12.582Z,82.83
2024-02-19T05:52:40.470Z,81.95
2024-02-19T05:55:10.822Z,83.33
2024-02-19T05:57:39.193Z,83.58
2024-02-19T06:00:12.416Z,82.88
2024-02-19T06:02:40.468Z,81.88
2024-02-19T06:05:09.307Z,82.12
2024-02-19T06:07:37.226Z,82.79
2024-02-19T06:10:09.075Z,83.29
2024-02-19T06:12:36.730Z,82.86
2024-02-19T06:15:04.976Z,83.63
2024-02-19T06:17:32.941Z,83.42
2024-02-19T06:20:00.543Z,83.24
2024-02-19T06:22:28.251Z,83.73
2024-02-19T06:24:55.752Z,83.18
2024-02-19T06:27:23.397Z,83.23
2024-02-19T06:29:50.782Z,84.35
2024-02-19T06:32:18.454Z,82.72
2024-02-19T06:34:46.333Z,84.06
2024-02-19T06:37:14.130Z,81.85
2024-02-19T06:39:42.666Z,82.71
2024-02-19T06:42:10.209Z,83.22
2024-02-19T06:44:37.749Z,82.25
2024-02-19T06:47:05.493Z,82.17
2024-02-19T06:49:33.249Z,82.48
2024-02-19T06:52:01.051Z,82.89
2024-02-19T06:54:31.354Z,82.15
2024-02-19T06:57:00.069Z,81.90
2024-02-19T06:59:27.861Z,81.03
2024-02-19T07:01:55.342Z,80.72
2024-02-19T07:04:23.278Z,80.00
2024-02-19T07:06:51.126Z,80.12
2024-02-19T07:09:19.799Z,79.65
2024-02-19T07:11:47.251Z,80.36
2024-02-19T07:14:16.337Z,79.11
2024-02-19T07:16:43.677Z,78.29
2024-02-19T07:19:11.408Z,76.90
2024-02-19T07:21:39.849Z,78.07
2024-02-19T07:24:07.405Z,77.67
2024-02-19T07:26:35.574Z,77.38
2024-02-19T07:29:03.093Z,77.52
2024-02-19T07:31:30.695Z,76.48
2024-02-19T07:33:58.447Z,78.07
2024-02-19T07:36:26.154Z,77.64
2024-02-19T07:38:53.881Z,78.33
2024-02-19T07:41:22.235Z,78.29
2024-02-19T07:43:50.811Z,77.89
2024-02-19T07:46:20.520Z,77.78
2024-02-19T07:48:48.456Z,78.60
2024-02-19T07:51:16.340Z,79.47
2024-02-19T07:53:44.079Z,79.18
2024-02-19T07:56:12.310Z,79.38
2024-02-19T07:58:40.294Z,79.28
2024-02-19T08:01:08.097Z,79.32
2024-02-19T08:03:36.137Z,78.08
2024-02-19T08:06:03.855Z,77.25
2024-02-19T08:08:31.844Z,78.93
2024-02-19T08:10:59.880Z,78.88
2024-02-19T08:13:27.570Z,78.71
2024-02-19T08:15:55.381Z,77.71
2024-02-19T08:18:23.174Z,78.77
2024-02-19T08:20:52.984Z,77.67
2024-02-19T08:23:20.766Z,77.51
2024-02-19T08:25:49.088Z,77.58
2024-02-19T08:28:17.088Z,77.25
2024-02-19T08:30:45.465Z,77.71
2024-02-19T08:33:13.217Z,77.04
2024-02-19T08:35:41.016Z,77.34
2024-02-19T08:38:09.286Z,78.10
2024-02-19T08:40:36.856Z,78.48
2024-02-19T08:43:04.493Z,78.36
2024-02-19T08:45:36.832Z,76.73
2024-02-19T08:48:06.152Z,76.84
2024-02-19T08:50:33.985Z,76.67
2024-02-19T08:53:02.089Z,75.99
2024-02-19T08:55:29.787Z,76.60
2024-02-19T08:57:57.686Z,76.00
2024-02-19T09:00:25.383Z,76.50
2024-02-19T09:02:54.195Z,74.91
2024-02-19T09:05:23.950Z,75.74
2024-02-19T09:07:51.547Z,75.03
2024-02-19T09:10:19.521Z,75.80
2024-02-19T09:12:47.260Z,76.25
2024-02-19T09:15:14.745Z,76.86
2024-02-19T09:17:42.378Z,77.10
2024-02-19T09:20:10.782Z,77.46
2024-02-19T09:22:38.881Z,77.59
2024-02-19T09:25:06.460Z,78.09
2024-02-19T09:27:34.693Z,79.11
2024-02-19T09:30:02.272Z,79.40
2024-02-19T09:32:31.650Z,79.26
2024-02-19T09:34:59.426Z,76.56
2024-02-19T09:37:27.302Z,77.81
2024-02-19T09:40:00.322Z,77.41
2024-02-19T09:42:29.056Z,76.79
2024-02-19T09:44:57.097Z,76.77
2024-02-19T09:47:25.460Z,77.84
2024-02-19T09:49:54.683Z,77.04
2024-02-19T09:52:30.036Z,77.60
2024-02-19T09:54:58.990Z,78.42
2024-02-19T09:57:29.577Z,78.07
2024-02-19T10:00:04.070Z,78.42
2024-02-19T10:02:34.672Z,77.90
2024-02-19T10:05:02.770Z,78.19
2024-02-19T10:07:32.795Z,76.68
2024-02-19T10:10:01.041Z,78.41
2024-02-19T10:12:30.883Z,77.83
2024-02-19T10:14:58.798Z,78.37
2024-02-19T10:17:33.709Z,78.82
2024-02-19T10:20:07.935Z,77.91
2024-02-19T10:22:36.177Z,77.19
2024-02-19T10:25:08.916Z,78.32
2024-02-19T10:27:38.814Z,77.13
2024-02-19T10:30:10.611Z,78.32
2024-02-19T10:32:38.857Z,78.43
2024-02-19T10:35:07.837Z,77.86
2024-02-19T10:37:38.536Z,78.46
2024-02-19T10:40:10.419Z,77.69
2024-02-19T10:42:39.641Z,75.55
2024-02-19T10:45:10.438Z,76.73
2024-02-19T10:47:39.935Z,77.73
2024-02-19T10:50:09.137Z,78.25
2024-02-19T10:52:41.160Z,77.48
2024-02-19T10:55:26.219Z,77.53
2024-02-19T10:58:01.585Z,77.47
2024-02-19T11:00:29.840Z,78.53
2024-02-19T11:03:07.821Z,79.48
2024-02-19T11:05:40.218Z,78.43
2024-02-19T11:08:21.430Z,77.46
2024-02-19T11:10:49.981Z,78.12
2024-02-19T11:13:28.725Z,78.49
2024-02-19T11:15:57.034Z,77.49
2024-02-19T11:18:25.047Z,77.37
2024-02-19T11:20:52.649Z,76.16
2024-02-19T11:23:21.918Z,77.19
2024-02-19T11:25:49.509Z,78.00
2024-02-19T11:28:17.630Z,78.15
2024-02-19T11:30:48.024Z,76.67
2024-02-19T11:33:16.072Z,77.72
2024-02-19T11:35:45.246Z,75.64
2024-02-19T11:38:13.300Z,75.52
2024-02-19T11:40:41.218Z,76.35
2024-02-19T11:43:10.071Z,77.29
2024-02-19T11:45:39.400Z,77.43
2024-02-19T11:48:07.502Z,77.00
2024-02-19T11:50:35.360Z,77.24
2024-02-19T11:53:04.769Z,78.16
2024-02-19T11:55:34.829Z,78.34
2024-02-19T11:58:03.911Z,79.21
2024-02-19T12:00:33.063Z,78.81
2024-02-19T12:03:01.744Z,78.83
2024-02-19T12:05:29.693Z,78.32
2024-02-19T12:07:57.903Z,78.60
2024-02-19T12:10:25.885Z,78.67
2024-02-19T12:12:55.540Z,78.27
2024-02-19T12:15:23.493Z,78.19
2024-02-19T12:17:53.612Z,78.23
2024-02-19T12:20:22.257Z,79.90
2024-02-19T12:22:50.109Z,79.21
2024-02-19T12:25:18.129Z,79.17
2024-02-19T12:27:47.714Z,77.97
2024-02-19T12:30:15.372Z,78.05
2024-02-19T12:32:44.746Z,78.33
2024-02-19T12:35:12.513Z,78.29
2024-02-19T12:37:40.176Z,79.59
2024-02-19T12:40:08.867Z,80.28
2024-02-19T12:42:36.399Z,79.59
2024-02-19T12:45:04.516Z,76.95
2024-02-19T12:47:32.495Z,77.59
2024-02-19T12:50:00.160Z,77.65
2024-02-19T12:52:28.775Z,78.81
2024-02-19T12:54:57.226Z,78.58
2024-02-19T12:57:25.115Z,78.33
2024-02-19T12:59:52.625Z,78.90
2024-02-19T13:02:20.465Z,78.97
2024-02-19T13:04:51.219Z,78.94
2024-02-19T13:07:19.213Z,78.64
2024-02-19T13:09:47.076Z,79.48
2024-02-19T13:12:15.651Z,77.10
2024-02-19T13:14:45.028Z,78.13
2024-02-19T13:17:22.884Z,76.59
2024-02-19T13:19:54.121Z,76.55
2024-02-19T13:22:22.977Z,77.94
2024-02-19T13:24:51.026Z,78.31
2024-02-19T13:27:20.909Z,77.44
2024-02-19T13:29:48.576Z,76.83
2024-02-19T13:32:16.280Z,79.03
2024-02-19T13:34:43.977Z,78.83
2024-02-19T13:37:11.742Z,78.64
2024-02-19T13:39:39.449Z,79.35
2024-02-19T13:42:07.118Z,77.33
2024-02-19T13:44:34.721Z,77.70
2024-02-19T13:47:02.432Z,78.87
2024-02-19T13:49:30.663Z,78.31
2024-02-19T13:51:58.553Z,77.41
2024-02-19T13:54:26.047Z,76.96
2024-02-19T13:56:55.249Z,78.59
2024-02-19T13:59:23.092Z,76.78
2024-02-19T14:01:50.678Z,77.14
2024-02-19T14:04:18.338Z,75.78
2024-02-19T14:06:46.442Z,76.26
2024-02-19T14:09:14.248Z,76.45
2024-02-19T14:11:42.001Z,75.86
2024-02-19T14:14:10.105Z,77.53
2024-02-19T14:16:37.934Z,77.10
2024-02-19T14:19:05.686Z,78.12
2024-02-19T14:21:33.461Z,78.01
2024-02-19T14:24:01.632Z,74.98
2024-02-19T14:26:30.562Z,77.90
2024-02-19T14:28:58.923Z,76.61
2024-02-19T14:31:26.576Z,77.30
2024-02-19T14:33:54.637Z,75.92
2024-02-19T14:36:25.775Z,76.47
2024-02-19T14:38:54.450Z,76.03
2024-02-19T14:41:22.967Z,74.75
2024-02-19T14:43:50.874Z,76.65
2024-02-19T14:46:19.396Z,75.12
2024-02-19T14:48:47.874Z,76.10
2024-02-19T14:51:19.877Z,75.68
2024-02-19T14:53:49.255Z,75.90
2024-02-19T14:56:17.300Z,76.07
2024-02-19T14:58:44.804Z,76.84
2024-02-19T15:01:13.889Z,75.33
2024-02-19T15:03:41.681Z,76.74
2024-02-19T15:06:10.544Z,75.10
2024-02-19T15:08:38.469Z,75.97
2024-02-19T15:11:06.064Z,76.64
2024-02-19T15:13:35.305Z,76.25
2024-02-19T15:16:03.154Z,79.02
2024-02-19T15:18:31.071Z,77.18
2024-02-19T15:20:59.416Z,76.88
2024-02-19T15:23:26.891Z,77.46
2024-02-19T15:25:54.489Z,76.59
2024-02-19T15:28:22.270Z,75.80
2024-02-19T15:30:50.302Z,74.91
2024-02-19T15:33:18.051Z,77.55
2024-02-19T15:35:46.814Z,76.97
2024-02-19T15:38:15.198Z,79.13
2024-02-19T15:40:42.801Z,76.62
2024-02-19T15:43:10.545Z,77.35
2024-02-19T15:45:39.456Z,77.86
2024-02-19T15:48:07.875Z,78.41
2024-02-19T15:50:35.455Z,77.28
2024-02-19T15:53:06.681Z,77.63
2024-02-19T15:55:35.473Z,76.63
2024-02-19T15:58:03.046Z,78.04
2024-02-19T16:00:33.697Z,77.12
2024-02-19T16:03:01.360Z,78.10
2024-02-19T16:05:29.007Z,75.95
2024-02-19T16:07:57.458Z,77.35
2024-02-19T16:10:25.092Z,76.51
2024-02-19T16:12:54.215Z,77.37
2024-02-19T16:15:22.533Z,77.83
2024-02-19T16:17:50.512Z,77.44
2024-02-19T16:20:19.149Z,77.30
2024-02-19T16:22:48.274Z,76.79
2024-02-19T16:25:15.913Z,78.43
2024-02-19T16:27:44.483Z,77.54
2024-02-19T16:30:14.739Z,77.87
2024-02-19T16:32:42.705Z,79.71
2024-02-19T16:35:12.600Z,78.36
2024-02-19T16:37:41.452Z,77.52
2024-02-19T16:40:09.828Z,77.14
2024-02-19T16:42:39.410Z,76.86
2024-02-19T16:45:07.425Z,76.88
2024-02-19T16:47:34.893Z,76.95
2024-02-19T16:50:02.931Z,77.21
2024-02-19T16:52:30.864Z,79.54
2024-02-19T16:54:58.948Z,76.58
2024-02-19T16:57:27.130Z,76.60
2024-02-19T16:59:54.712Z,76.12
2024-02-19T17:02:23.212Z,78.21
2024-02-19T17:04:53.048Z,75.94
2024-02-19T17:07:21.109Z,78.13
2024-02-19T17:09:49.130Z,78.67
2024-02-19T17:12:16.919Z,76.82
2024-02-19T17:14:46.162Z,77.46
2024-02-19T17:17:13.685Z,77.31
2024-02-19T17:19:41.444Z,77.66
2024-02-19T17:22:09.502Z,78.64
2024-02-19T17:24:39.870Z,78.75
2024-02-19T17:27:09.017Z,76.05
2024-02-19T17:29:37.091Z,77.97
2024-02-19T17:32:05.143Z,77.40
2024-02-19T17:34:32.996Z,77.57
2024-02-19T17:37:02.547Z,77.96
2024-02-19T17:39:30.063Z,75.92
2024-02-19T17:41:57.607Z,76.68
2024-02-19T17:44:25.911Z,76.14
2024-02-19T17:46:55.536Z,78.06
2024-02-19T17:49:23.448Z,78.77
2024-02-19T17:51:54.374Z,79.51
2024-02-19T17:54:22.437Z,78.71
2024-02-19T17:56:49.876Z,78.69
2024-02-19T17:59:17.559Z,78.90
2024-02-19T18:01:45.569Z,78.69
2024-02-19T18:04:13.652Z,78.66
2024-02-19T18:06:41.320Z,77.09
2024-02-19T18:09:10.795Z,77.25
2024-02-19T18:11:38.406Z,76.61
2024-02-19T18:14:06.033Z,77.69
2024-02-19T18:16:34.439Z,80.48
2024-02-19T18:19:02.335Z,79.53
2024-02-19T18:21:29.933Z,77.48
2024-02-19T18:23:58.992Z,77.03
2024-02-19T18:26:27.886Z,80.10
2024-02-19T18:28:57.515Z,76.77
2024-02-19T18:31:25.762Z,77.74
2024-02-19T18:33:53.514Z,79.45
2024-02-19T18:36:21.345Z,78.38
2024-02-19T18:38:49.212Z,77.07
2024-02-19T18:41:16.922Z,76.03
2024-02-19T18:43:45.133Z,75.69
2024-02-19T18:46:12.647Z,79.82
2024-02-19T18:48:43.253Z,80.57
2024-02-19T18:51:12.207Z,80.22
2024-02-19T18:53:40.745Z,80.46
2024-02-19T18:56:08.365Z,79.90
2024-02-19T18:58:36.138Z,77.85
2024-02-19T19:01:05.835Z,79.79
2024-02-19T19:03:33.943Z,79.19
2024-02-19T19:06:04.932Z,79.49
2024-02-19T19:08:34.055Z,79.12
2024-02-19T19:11:01.598Z,80.82
2024-02-19T19:13:29.576Z,81.63
2024-02-19T19:15:57.596Z,80.08
2024-02-19T19:18:26.089Z,79.00
2024-02-19T19:20:53.776Z,77.55
2024-02-19T19:23:21.754Z,79.21
2024-02-19T19:25:50.807Z,78.25
2024-02-19T19:28:20.266Z,77.73
2024-02-19T19:30:48.116Z,80.25
2024-02-19T19:33:18.810Z,79.54
2024-02-19T19:35:49.368Z,78.96
2024-02-19T19:38:17.422Z,81.11
2024-02-19T19:40:45.253Z,79.59
2024-02-19T19:43:13.110Z,79.99
2024-02-19T19:45:40.477Z,80.15
2024-02-19T19:48:08.751Z,79.89
2024-02-19T19:50:37.091Z,79.53
2024-02-19T19:53:04.806Z,79.74
2024-02-19T19:55:32.894Z,77.77
2024-02-19T19:58:01.009Z,80.03
2024-02-19T20:00:29.203Z,79.49
2024-02-19T20:02:58.810Z,78.03
2024-02-19T20:05:26.505Z,77.47
2024-02-19T20:07:54.348Z,78.72
2024-02-19T20:10:21.886Z,79.41
2024-02-19T20:12:50.916Z,78.02
2024-02-19T20:15:18.828Z,80.48
2024-02-19T20:17:46.515Z,80.41
2024-02-19T20:20:14.220Z,80.74
2024-02-19T20:22:42.467Z,80.32
2024-02-19T20:25:11.133Z,80.19
2024-02-19T20:27:40.574Z,79.47
2024-02-19T20:30:09.785Z,80.12
2024-02-19T20:32:37.573Z,80.28
2024-02-19T20:35:06.031Z,81.07
2024-02-19T20:37:33.987Z,80.53
2024-02-19T20:40:06.033Z,78.04
2024-02-19T20:42:35.850Z,80.80
2024-02-19T20:45:03.748Z,79.82
2024-02-19T20:47:31.738Z,79.89
2024-02-19T20:50:01.305Z,80.14
2024-02-19T20:52:31.177Z,80.79
2024-02-19T20:54:58.884Z,79.82
2024-02-19T20:57:26.426Z,79.96
2024-02-19T20:59:54.577Z,80.18
2024-02-19T21:02:22.569Z,79.24
2024-02-19T21:04:50.610Z,80.20
2024-02-19T21:07:18.573Z,80.10
2024-02-19T21:09:46.198Z,78.84
2024-02-19T21:12:13.874Z,78.57
2024-02-19T21:14:41.508Z,79.62
2024-02-19T21:17:09.375Z,79.82
2024-02-19T21:19:37.060Z,78.65
2024-02-19T21:22:04.844Z,80.19
2024-02-19T21:24:32.440Z,78.87
2024-02-19T21:27:00.712Z,80.02
2024-02-19T21:29:30.136Z,79.19
2024-02-19T21:31:57.991Z,80.15
2024-02-19T21:34:25.409Z,78.14
2024-02-19T21:36:57.485Z,79.37
2024-02-19T21:39:26.303Z,79.86
2024-02-19T21:41:54.321Z,80.61
2024-02-19T21:44:23.254Z,78.74
2024-02-19T21:46:51.212Z,78.74
2024-02-19T21:49:20.820Z,78.49
2024-02-19T21:51:49.342Z,79.13
2024-02-19T21:54:17.255Z,79.44
2024-02-19T21:56:44.752Z,79.40
2024-02-19T21:59:12.520Z,79.19
2024-02-19T22:01:40.189Z,81.33
2024-02-19T22:04:09.654Z,81.94
2024-02-19T22:06:37.373Z,81.08
2024-02-19T22:09:05.214Z,80.69
2024-02-19T22:11:34.722Z,79.79
2024-02-19T22:14:02.484Z,81.83
2024-02-19T22:16:30.401Z,82.39
2024-02-19T22:18:58.203Z,82.44
2024-02-19T22:21:25.775Z,80.75
2024-02-19T22:23:53.458Z,80.51
2024-02-19T22:26:21.742Z,80.24
2024-02-19T22:28:49.385Z,79.62
2024-02-19T22:31:17.093Z,79.77
2024-02-19T22:33:44.677Z,80.29
2024-02-19T22:36:12.295Z,82.68
2024-02-19T22:38:40.134Z,82.88
2024-02-19T22:41:07.718Z,80.56
2024-02-19T22:43:35.464Z,80.32
2024-02-19T22:46:02.964Z,80.47
2024-02-19T22:48:30.643Z,80.69
2024-02-19T22:50:58.678Z,80.69
2024-02-19T22:53:26.268Z,80.49
2024-02-19T22:55:53.725Z,80.96
2024-02-19T22:58:31.263Z,79.98
2024-02-19T23:01:03.395Z,81.43
2024-02-19T23:03:31.457Z,80.24
2024-02-19T23:05:59.326Z,80.12
2024-02-19T23:08:27.268Z,81.98
2024-02-19T23:10:55.954Z,82.13
2024-02-19T23:13:23.613Z,82.39
2024-02-19T23:15:51.408Z,82.45
2024-02-19T23:18:19.092Z,82.49
2024-02-19T23:20:47.091Z,82.77
2024-02-19T23:23:14.578Z,82.22
2024-02-19T23:25:42.673Z,81.73
2024-02-19T23:28:10.265Z,81.65
2024-02-19T23:30:37.767Z,80.54
2024-02-19T23:33:06.065Z,81.95
2024-02-19T23:35:35.276Z,81.28
2024-02-19T23:38:03.182Z,80.71
2024-02-19T23:40:30.935Z,81.17
2024-02-19T23:42:58.852Z,82.30
2024-02-19T23:45:26.380Z,82.84
2024-02-19T23:47:54.192Z,83.11
2024-02-19T23:50:21.864Z,82.62
2024-02-19T23:52:49.642Z,82.75
2024-02-19T23:55:18.514Z,81.09
2024-02-19T23:57:46.221Z,82.40
